createdAt,value
2022-12-28T00:00:27.704Z,4.49
2022-12-28T00:01:32.077Z,4.48
2022-12-28T00:02:33.836Z,4.47
2022-12-28T00:03:35.586Z,4.55
2022-12-28T00:04:37.161Z,4.62
2022-12-28T00:05:38.741Z,4.64
2022-12-28T00:06:40.319Z,4.73
2022-12-28T00:07:41.833Z,4.81
2022-12-28T00:08:43.426Z,4.89
2022-12-28T00:09:45.055Z,4.95
2022-12-28T00:11:08.723Z,5.03
2022-12-28T00:12:08.235Z,5.06
2022-12-28T00:13:09.778Z,5.10
2022-12-28T00:14:11.517Z,5.00
2022-12-28T00:15:13.213Z,4.92
2022-12-28T00:16:23.785Z,4.78
2022-12-28T00:17:25.371Z,4.72
2022-12-28T00:18:26.912Z,4.63
2022-12-28T00:19:28.455Z,4.56
2022-12-28T00:20:29.970Z,4.55
2022-12-28T00:21:32.265Z,4.50
2022-12-28T00:22:33.879Z,4.46
2022-12-28T00:23:35.529Z,4.46
2022-12-28T00:24:37.231Z,4.38
2022-12-28T00:25:38.760Z,4.34
2022-12-28T00:26:40.295Z,4.33
2022-12-28T00:27:41.813Z,4.28
2022-12-28T00:28:43.467Z,4.25
2022-12-28T00:29:45.009Z,4.24
2022-12-28T00:30:47.105Z,4.34
2022-12-28T00:31:49.106Z,4.35
2022-12-28T00:32:50.719Z,4.26
2022-12-28T00:33:52.275Z,4.21
2022-12-28T00:34:54.030Z,4.23
2022-12-28T00:35:57.832Z,4.22
2022-12-28T00:37:11.903Z,4.16
2022-12-28T00:38:14.323Z,4.07
2022-12-28T00:39:15.874Z,4.02
2022-12-28T00:40:22.129Z,3.99
2022-12-28T00:41:25.784Z,3.88
2022-12-28T00:42:27.347Z,3.84
2022-12-28T00:43:28.959Z,3.89
2022-12-28T00:44:30.676Z,3.92
2022-12-28T00:45:32.321Z,3.98
2022-12-28T00:46:34.004Z,4.11
2022-12-28T00:47:35.636Z,4.17
2022-12-28T00:48:37.256Z,4.25
2022-12-28T00:49:38.770Z,4.34
2022-12-28T00:50:41.378Z,4.36
2022-12-28T00:51:42.923Z,4.37
2022-12-28T00:52:44.497Z,4.36
2022-12-28T00:53:46.359Z,4.36
2022-12-28T00:54:47.936Z,4.34
2022-12-28T00:55:49.432Z,4.16
2022-12-28T00:56:51.060Z,4.01
2022-12-28T00:57:52.635Z,3.94
2022-12-28T00:58:59.190Z,4.01
2022-12-28T01:00:00.719Z,4.08
2022-12-28T01:01:02.903Z,4.19
2022-12-28T01:02:04.791Z,4.31
2022-12-28T01:03:06.467Z,4.41
2022-12-28T01:04:08.104Z,4.50
2022-12-28T01:05:10.213Z,4.57
2022-12-28T01:06:13.934Z,4.61
2022-12-28T01:07:15.528Z,4.56
2022-12-28T01:08:17.068Z,4.63
2022-12-28T01:09:18.647Z,4.66
2022-12-28T01:10:20.269Z,4.63
2022-12-28T01:11:25.043Z,4.59
2022-12-28T01:12:26.622Z,4.60
2022-12-28T01:13:28.132Z,4.66
2022-12-28T01:14:29.791Z,4.69
2022-12-28T01:15:31.329Z,4.78
2022-12-28T01:16:36.034Z,4.81
2022-12-28T01:17:37.857Z,4.75
2022-12-28T01:18:39.733Z,4.73
2022-12-28T01:19:41.423Z,4.76
2022-12-28T01:20:42.994Z,4.77
2022-12-28T01:21:44.508Z,4.83
2022-12-28T01:22:46.100Z,4.87
2022-12-28T01:23:48.949Z,4.92
2022-12-28T01:24:50.541Z,4.97
2022-12-28T01:25:52.089Z,4.91
2022-12-28T01:26:53.628Z,4.76
2022-12-28T01:27:55.169Z,4.73
2022-12-28T01:28:58.298Z,4.82
2022-12-28T01:29:59.904Z,4.83
2022-12-28T01:31:10.403Z,4.86
2022-12-28T01:32:12.126Z,4.72
2022-12-28T01:33:13.725Z,4.70
2022-12-28T01:34:15.395Z,4.71
2022-12-28T01:35:16.956Z,4.69
2022-12-28T01:36:21.211Z,4.63
2022-12-28T01:37:22.717Z,4.41
2022-12-28T01:38:24.327Z,4.22
2022-12-28T01:39:25.846Z,4.22
2022-12-28T01:40:27.436Z,4.30
2022-12-28T01:41:30.227Z,4.40
2022-12-28T01:42:31.803Z,4.45
2022-12-28T01:44:10.330Z,4.50
2022-12-28T01:45:22.605Z,4.63
2022-12-28T01:46:32.435Z,4.69
2022-12-28T01:47:35.784Z,4.72
2022-12-28T01:48:45.483Z,4.81
2022-12-28T01:49:54.046Z,4.88
2022-12-28T01:50:55.758Z,4.90
2022-12-28T01:52:06.311Z,4.92
2022-12-28T01:53:08.113Z,4.83
2022-12-28T01:54:10.091Z,4.80
2022-12-28T01:55:20.330Z,4.85
2022-12-28T01:56:23.190Z,4.85
2022-12-28T01:57:30.074Z,4.84
2022-12-28T01:58:33.313Z,4.75
2022-12-28T01:59:40.399Z,4.79
2022-12-28T02:00:41.985Z,4.80
2022-12-28T02:01:43.861Z,4.67
2022-12-28T02:02:56.775Z,4.60
2022-12-28T02:03:58.455Z,4.62
2022-12-28T02:05:00.871Z,4.65
2022-12-28T02:06:08.329Z,4.63
2022-12-28T02:07:10.055Z,4.48
2022-12-28T02:08:30.305Z,4.42
2022-12-28T02:09:42.543Z,4.46
2022-12-28T02:10:46.205Z,4.55
2022-12-28T02:11:50.029Z,4.51
2022-12-28T02:12:51.975Z,4.50
2022-12-28T02:13:54.740Z,4.55
2022-12-28T02:14:56.688Z,4.63
2022-12-28T02:15:58.231Z,4.66
2022-12-28T02:16:59.935Z,4.70
2022-12-28T02:18:02.403Z,4.65
2022-12-28T02:19:05.668Z,4.47
2022-12-28T02:20:07.915Z,4.32
2022-12-28T02:21:09.575Z,4.09
2022-12-28T02:22:34.336Z,3.72
2022-12-28T02:23:38.636Z,3.53
2022-12-28T02:25:17.554Z,3.57
2022-12-28T02:26:45.008Z,3.60
2022-12-28T02:28:04.597Z,3.65
2022-12-28T02:29:21.416Z,3.72
2022-12-28T02:30:22.984Z,3.76
2022-12-28T02:31:37.594Z,3.69
2022-12-28T02:32:57.728Z,3.67
2022-12-28T02:34:14.226Z,3.64
2022-12-28T02:35:37.712Z,3.67
2022-12-28T02:36:46.176Z,3.57
2022-12-28T02:37:54.505Z,3.37
2022-12-28T02:39:03.488Z,3.32
2022-12-28T02:40:11.758Z,3.37
2022-12-28T02:41:18.493Z,3.42
2022-12-28T02:42:22.838Z,3.52
2022-12-28T02:43:24.438Z,3.54
2022-12-28T02:44:44.771Z,3.52
2022-12-28T02:46:06.465Z,3.47
2022-12-28T02:47:34.200Z,3.47
2022-12-28T02:49:04.741Z,3.50
2022-12-28T02:50:11.038Z,3.53
2022-12-28T02:51:30.567Z,3.48
2022-12-28T02:52:51.049Z,3.49
2022-12-28T02:54:40.776Z,3.56
2022-12-28T02:56:09.556Z,3.53
2022-12-28T02:57:48.619Z,3.49
2022-12-28T02:59:11.838Z,3.38
2022-12-28T03:00:18.101Z,3.34
2022-12-28T03:01:44.418Z,3.30
2022-12-28T03:02:54.842Z,3.28
2022-12-28T03:04:23.736Z,3.24
2022-12-28T03:06:19.524Z,3.34
2022-12-28T03:07:53.545Z,3.51
2022-12-28T03:09:09.947Z,3.49
2022-12-28T03:10:18.670Z,3.54
2022-12-28T03:11:26.449Z,3.60
2022-12-28T03:12:39.052Z,3.72
2022-12-28T03:13:43.188Z,3.82
2022-12-28T03:14:56.533Z,3.90
2022-12-28T03:16:03.391Z,3.90
2022-12-28T03:17:25.363Z,3.94
2022-12-28T03:18:47.237Z,4.07
2022-12-28T03:20:16.255Z,4.15
2022-12-28T03:21:38.052Z,4.24
2022-12-28T03:23:00.452Z,4.30
2022-12-28T03:24:22.323Z,4.34
2022-12-28T03:25:46.325Z,4.37
2022-12-28T03:27:09.789Z,4.29
2022-12-28T03:28:34.021Z,4.12
2022-12-28T03:30:01.015Z,4.01
2022-12-28T03:31:07.617Z,3.69
2022-12-28T03:32:10.713Z,3.49
2022-12-28T03:33:12.755Z,3.36
2022-12-28T03:34:14.652Z,3.24
2022-12-28T03:35:18.627Z,3.07
2022-12-28T03:36:37.365Z,2.94
2022-12-28T03:37:49.848Z,2.79
2022-12-28T03:39:08.403Z,2.68
2022-12-28T03:40:12.716Z,2.70
2022-12-28T03:41:34.837Z,2.78
2022-12-28T03:43:04.046Z,2.67
2022-12-28T03:44:19.639Z,2.59
2022-12-28T03:45:47.678Z,2.55
2022-12-28T03:46:55.748Z,2.53
2022-12-28T03:48:00.353Z,2.55
2022-12-28T03:49:02.702Z,2.53
2022-12-28T03:50:05.652Z,2.54
2022-12-28T03:51:07.922Z,2.55
2022-12-28T03:52:10.748Z,2.58
2022-12-28T03:53:12.664Z,2.62
2022-12-28T03:54:16.107Z,2.60
2022-12-28T03:55:18.225Z,2.61
2022-12-28T03:56:23.077Z,2.66
2022-12-28T03:57:24.777Z,2.68
2022-12-28T03:58:26.315Z,2.67
2022-12-28T03:59:27.925Z,2.70
2022-12-28T04:00:29.502Z,2.75
2022-12-28T04:01:31.192Z,2.77
2022-12-28T04:02:33.035Z,2.87
2022-12-28T04:03:34.767Z,2.98
2022-12-28T04:04:36.511Z,3.07
2022-12-28T04:05:38.059Z,3.14
2022-12-28T04:06:39.821Z,3.26
2022-12-28T04:07:41.684Z,3.36
2022-12-28T04:08:44.775Z,3.47
2022-12-28T04:09:46.335Z,3.52
2022-12-28T04:10:47.937Z,3.60
2022-12-28T04:11:49.460Z,3.68
2022-12-28T04:12:55.031Z,3.70
2022-12-28T04:13:56.629Z,3.77
2022-12-28T04:14:58.200Z,3.85
2022-12-28T04:16:02.032Z,3.92
2022-12-28T04:17:03.671Z,3.99
2022-12-28T04:18:05.330Z,4.05
2022-12-28T04:19:06.899Z,4.10
2022-12-28T04:20:09.156Z,3.97
2022-12-28T04:21:12.268Z,3.96
2022-12-28T04:22:13.836Z,3.93
2022-12-28T04:23:15.399Z,3.85
2022-12-28T04:24:16.917Z,3.81
2022-12-28T04:25:19.482Z,3.83
2022-12-28T04:26:21.147Z,3.79
2022-12-28T04:27:24.214Z,3.67
2022-12-28T04:28:26.040Z,3.72
2022-12-28T04:29:27.601Z,3.65
2022-12-28T04:30:29.145Z,3.57
2022-12-28T04:31:30.944Z,3.50
2022-12-28T04:32:32.601Z,3.49
2022-12-28T04:33:37.752Z,3.50
2022-12-28T04:34:44.727Z,3.40
2022-12-28T04:35:50.760Z,3.43
2022-12-28T04:36:52.359Z,3.43
2022-12-28T04:37:53.909Z,3.36
2022-12-28T04:38:55.495Z,3.30
2022-12-28T04:39:57.586Z,3.33
2022-12-28T04:40:59.242Z,3.40
2022-12-28T04:42:00.831Z,3.48
2022-12-28T04:43:02.393Z,3.51
2022-12-28T04:44:04.015Z,3.55
2022-12-28T04:45:06.342Z,3.58
2022-12-28T04:46:12.420Z,3.61
2022-12-28T04:47:14.029Z,3.64
2022-12-28T04:48:15.552Z,3.68
2022-12-28T04:49:17.106Z,3.72
2022-12-28T04:50:18.693Z,3.76
2022-12-28T04:51:22.881Z,3.80
2022-12-28T04:52:24.564Z,3.86
2022-12-28T04:53:26.137Z,3.94
2022-12-28T04:54:27.704Z,4.01
2022-12-28T04:55:31.949Z,4.07
2022-12-28T04:56:35.027Z,4.09
2022-12-28T04:57:36.566Z,4.07
2022-12-28T04:58:39.095Z,4.03
2022-12-28T04:59:40.741Z,3.93
2022-12-28T05:00:42.752Z,3.75
2022-12-28T05:01:44.544Z,3.63
2022-12-28T05:02:46.533Z,3.69
2022-12-28T05:03:54.932Z,3.77
2022-12-28T05:04:59.055Z,3.82
2022-12-28T05:06:06.485Z,3.73
2022-12-28T05:07:08.040Z,3.37
2022-12-28T05:08:09.589Z,3.08
2022-12-28T05:09:11.149Z,3.10
2022-12-28T05:10:12.796Z,3.06
2022-12-28T05:11:20.898Z,3.11
2022-12-28T05:12:22.590Z,2.97
2022-12-28T05:13:24.231Z,2.72
2022-12-28T05:14:25.966Z,2.59
2022-12-28T05:15:27.752Z,2.51
2022-12-28T05:16:29.504Z,2.43
2022-12-28T05:17:31.105Z,2.51
2022-12-28T05:18:33.154Z,2.66
2022-12-28T05:19:34.875Z,2.74
2022-12-28T05:20:36.407Z,2.87
2022-12-28T05:21:37.948Z,2.95
2022-12-28T05:22:41.261Z,3.02
2022-12-28T05:23:43.408Z,3.08
2022-12-28T05:24:45.045Z,3.17
2022-12-28T05:25:53.304Z,3.24
2022-12-28T05:26:55.176Z,3.34
2022-12-28T05:27:56.769Z,3.42
2022-12-28T05:28:59.937Z,3.46
2022-12-28T05:30:01.697Z,3.52
2022-12-28T05:31:06.229Z,3.52
2022-12-28T05:32:08.112Z,3.53
2022-12-28T05:33:09.681Z,3.58
2022-12-28T05:34:11.291Z,3.63
2022-12-28T05:35:15.367Z,3.70
2022-12-28T05:36:22.907Z,3.70
2022-12-28T05:37:24.422Z,3.62
2022-12-28T05:38:26.038Z,3.61
2022-12-28T05:39:27.628Z,3.60
2022-12-28T05:40:29.673Z,3.53
2022-12-28T05:41:32.264Z,3.42
2022-12-28T05:42:35.993Z,3.38
2022-12-28T05:43:37.675Z,3.42
2022-12-28T05:44:39.286Z,3.40
2022-12-28T05:45:40.893Z,3.27
2022-12-28T05:46:42.577Z,3.16
2022-12-28T05:47:44.141Z,3.17
2022-12-28T05:48:46.714Z,3.20
2022-12-28T05:49:48.348Z,3.21
2022-12-28T05:50:49.871Z,3.23
2022-12-28T05:51:54.584Z,3.20
2022-12-28T05:52:56.113Z,3.14
2022-12-28T05:53:59.497Z,3.04
2022-12-28T05:55:01.162Z,3.02
2022-12-28T05:56:14.719Z,3.07
2022-12-28T05:57:16.513Z,3.13
2022-12-28T05:58:18.069Z,3.11
2022-12-28T05:59:19.678Z,3.05
2022-12-28T06:00:21.817Z,2.95
2022-12-28T06:01:26.946Z,2.88
2022-12-28T06:02:28.645Z,2.91
2022-12-28T06:03:30.294Z,3.03
2022-12-28T06:04:31.954Z,3.11
2022-12-28T06:05:34.551Z,3.13
2022-12-28T06:06:36.631Z,2.93
2022-12-28T06:07:38.491Z,2.61
2022-12-28T06:08:41.042Z,2.41
2022-12-28T06:09:42.567Z,2.20
2022-12-28T06:10:44.126Z,2.22
2022-12-28T06:11:46.220Z,2.27
2022-12-28T06:12:47.726Z,2.31
2022-12-28T06:13:49.817Z,2.32
2022-12-28T06:14:51.388Z,2.32
2022-12-28T06:15:52.960Z,2.38
2022-12-28T06:16:54.532Z,2.44
2022-12-28T06:17:56.193Z,2.51
2022-12-28T06:18:58.565Z,2.50
2022-12-28T06:20:00.200Z,2.46
2022-12-28T06:21:22.471Z,2.44
2022-12-28T06:22:24.009Z,2.44
2022-12-28T06:23:26.646Z,2.42
2022-12-28T06:24:28.190Z,2.42
2022-12-28T06:25:29.861Z,2.45
2022-12-28T06:26:33.570Z,2.47
2022-12-28T06:27:35.151Z,2.57
2022-12-28T06:28:38.084Z,2.67
2022-12-28T06:29:39.680Z,2.72
2022-12-28T06:30:41.286Z,2.81
2022-12-28T06:31:51.336Z,2.92
2022-12-28T06:32:52.984Z,2.95
2022-12-28T06:33:57.161Z,2.96
2022-12-28T06:34:58.812Z,3.04
2022-12-28T06:36:01.033Z,3.13
2022-12-28T06:37:04.196Z,3.25
2022-12-28T06:38:05.712Z,3.37
2022-12-28T06:39:10.137Z,3.46
2022-12-28T06:40:11.925Z,3.47
2022-12-28T06:41:15.503Z,3.54
2022-12-28T06:42:17.123Z,3.62
2022-12-28T06:43:19.139Z,3.67
2022-12-28T06:44:20.652Z,3.74
2022-12-28T06:45:22.217Z,3.78
2022-12-28T06:46:25.854Z,3.85
2022-12-28T06:47:27.459Z,3.90
2022-12-28T06:48:30.863Z,3.95
2022-12-28T06:49:32.419Z,3.98
2022-12-28T06:50:39.809Z,4.02
2022-12-28T06:51:42.390Z,4.07
2022-12-28T06:52:44.120Z,4.12
2022-12-28T06:53:46.999Z,4.16
2022-12-28T06:54:48.607Z,4.21
2022-12-28T06:55:54.905Z,4.25
2022-12-28T06:56:56.530Z,4.32
2022-12-28T06:57:58.046Z,4.38
2022-12-28T06:59:03.181Z,4.44
2022-12-28T07:00:06.530Z,4.43
2022-12-28T07:01:09.543Z,4.40
2022-12-28T07:02:11.279Z,4.39
2022-12-28T07:03:13.030Z,4.34
2022-12-28T07:04:14.710Z,4.33
2022-12-28T07:05:16.371Z,4.33
2022-12-28T07:06:19.769Z,4.24
2022-12-28T07:07:21.334Z,4.10
2022-12-28T07:08:22.844Z,3.97
2022-12-28T07:09:24.353Z,3.72
2022-12-28T07:10:25.952Z,3.56
2022-12-28T07:11:29.019Z,3.44
2022-12-28T07:12:30.630Z,3.44
2022-12-28T07:13:32.899Z,3.35
2022-12-28T07:14:34.461Z,3.22
2022-12-28T07:15:36.864Z,3.23
2022-12-28T07:17:39.120Z,3.15
2022-12-28T07:18:41.480Z,3.10
2022-12-28T07:19:43.075Z,3.06
2022-12-28T07:20:45.216Z,2.99
2022-12-28T07:21:49.358Z,2.93
2022-12-28T07:22:50.972Z,2.90
2022-12-28T07:23:54.041Z,2.92
2022-12-28T07:24:56.042Z,2.96
2022-12-28T07:26:03.269Z,2.95
2022-12-28T07:27:04.931Z,2.93
2022-12-28T07:28:06.539Z,2.96
2022-12-28T07:29:08.857Z,2.97
2022-12-28T07:30:10.921Z,2.99
2022-12-28T07:31:17.860Z,3.01
2022-12-28T07:32:19.460Z,3.07
2022-12-28T07:33:21.044Z,3.03
2022-12-28T07:34:23.485Z,2.98
2022-12-28T07:35:25.117Z,3.03
2022-12-28T07:36:29.385Z,3.14
2022-12-28T07:37:30.944Z,3.18
2022-12-28T07:38:33.524Z,3.13
2022-12-28T07:39:35.857Z,3.07
2022-12-28T07:40:40.103Z,3.05
2022-12-28T07:41:41.815Z,3.06
2022-12-28T07:42:43.372Z,3.06
2022-12-28T07:43:45.518Z,3.10
2022-12-28T07:44:49.269Z,3.20
2022-12-28T07:46:03.702Z,3.21
2022-12-28T07:47:05.498Z,3.21
2022-12-28T07:48:07.138Z,3.18
2022-12-28T07:49:08.739Z,3.17
2022-12-28T07:50:10.931Z,3.16
2022-12-28T07:51:18.425Z,3.18
2022-12-28T07:52:19.968Z,3.16
2022-12-28T07:53:22.318Z,3.12
2022-12-28T07:54:24.029Z,3.15
2022-12-28T07:55:29.742Z,3.21
2022-12-28T07:57:34.396Z,3.50
2022-12-28T07:58:36.297Z,3.64
2022-12-28T07:59:37.992Z,3.73
2022-12-28T08:00:39.528Z,3.83
2022-12-28T08:01:41.200Z,3.95
2022-12-28T08:02:42.774Z,4.02
2022-12-28T08:03:45.308Z,4.08
2022-12-28T08:04:52.025Z,4.12
2022-12-28T08:05:53.945Z,4.17
2022-12-28T08:06:55.548Z,4.23
2022-12-28T08:08:03.241Z,4.26
2022-12-28T08:09:06.864Z,4.31
2022-12-28T08:10:08.805Z,4.36
2022-12-28T08:11:15.836Z,4.42
2022-12-28T08:12:17.437Z,4.48
2022-12-28T08:13:19.374Z,4.59
2022-12-28T08:14:20.905Z,4.66
2022-12-28T08:15:22.541Z,4.68
2022-12-28T08:16:28.507Z,4.72
2022-12-28T08:17:30.130Z,4.78
2022-12-28T08:18:32.647Z,4.72
2022-12-28T08:19:34.236Z,4.59
2022-12-28T08:20:38.239Z,4.47
2022-12-28T08:21:43.134Z,4.49
2022-12-28T08:22:44.653Z,4.47
2022-12-28T08:23:47.127Z,4.29
2022-12-28T08:24:48.649Z,4.21
2022-12-28T08:25:50.259Z,4.25
2022-12-28T08:26:51.858Z,4.26
2022-12-28T08:27:53.399Z,4.26
2022-12-28T08:28:57.577Z,4.27
2022-12-28T08:29:59.141Z,4.25
2022-12-28T08:31:12.748Z,4.21
2022-12-28T08:32:14.324Z,4.21
2022-12-28T08:33:15.848Z,4.27
2022-12-28T08:34:20.520Z,4.22
2022-12-28T08:35:22.050Z,4.14
2022-12-28T08:36:24.305Z,4.18
2022-12-28T08:37:25.995Z,4.22
2022-12-28T08:38:27.727Z,4.28
2022-12-28T08:39:29.233Z,4.33
2022-12-28T08:40:30.826Z,4.37
2022-12-28T08:41:32.578Z,4.40
2022-12-28T08:42:34.088Z,4.44
2022-12-28T08:43:35.693Z,4.49
2022-12-28T08:44:37.315Z,4.54
2022-12-28T08:45:41.707Z,4.64
2022-12-28T08:46:43.572Z,4.72
2022-12-28T08:47:45.161Z,4.79
2022-12-28T08:48:48.297Z,4.83
2022-12-28T08:49:49.872Z,4.88
2022-12-28T08:50:51.581Z,4.91
2022-12-28T08:51:53.268Z,4.90
2022-12-28T08:52:54.780Z,4.88
2022-12-28T08:53:56.711Z,4.75
2022-12-28T08:54:58.229Z,4.60
2022-12-28T08:56:11.081Z,4.45
2022-12-28T08:57:12.701Z,4.32
2022-12-28T08:58:14.308Z,4.20
2022-12-28T08:59:18.453Z,4.11
2022-12-28T09:00:20.028Z,4.12
2022-12-28T09:01:24.667Z,4.04
2022-12-28T09:02:26.548Z,4.13
2022-12-28T09:03:28.268Z,4.26
2022-12-28T09:04:29.846Z,4.35
2022-12-28T09:05:37.477Z,4.43
2022-12-28T09:06:41.213Z,4.54
2022-12-28T09:07:42.766Z,4.59
2022-12-28T09:08:56.778Z,4.62
2022-12-28T09:10:05.183Z,4.68
2022-12-28T09:11:12.820Z,4.77
2022-12-28T09:12:14.371Z,4.83
2022-12-28T09:13:15.936Z,4.81
2022-12-28T09:14:23.232Z,4.80
2022-12-28T09:15:25.628Z,4.84
2022-12-28T09:16:28.608Z,4.89
2022-12-28T09:17:30.200Z,4.90
2022-12-28T09:18:31.849Z,4.90
2022-12-28T09:19:33.422Z,4.91
2022-12-28T09:20:35.302Z,4.84
2022-12-28T09:21:38.279Z,4.68
2022-12-28T09:22:39.909Z,4.60
2022-12-28T09:23:42.615Z,4.50
2022-12-28T09:24:44.275Z,4.54
2022-12-28T09:25:46.247Z,4.67
2022-12-28T09:26:48.747Z,4.78
2022-12-28T09:27:53.355Z,4.78
2022-12-28T09:29:00.987Z,4.71
2022-12-28T09:30:03.428Z,4.67
2022-12-28T09:31:07.567Z,4.59
2022-12-28T09:32:09.203Z,4.55
2022-12-28T09:33:29.242Z,4.61
2022-12-28T09:34:36.720Z,4.58
2022-12-28T09:35:39.000Z,4.73
2022-12-28T09:36:43.188Z,4.81
2022-12-28T09:37:45.160Z,4.93
2022-12-28T09:38:47.632Z,4.99
2022-12-28T09:39:49.264Z,5.04
2022-12-28T09:40:51.089Z,5.10
2022-12-28T09:41:57.775Z,5.18
2022-12-28T09:42:59.480Z,5.25
2022-12-28T09:44:13.082Z,5.30
2022-12-28T09:45:16.293Z,5.29
2022-12-28T09:46:21.202Z,5.30
2022-12-28T09:47:29.620Z,5.41
2022-12-28T09:48:31.442Z,5.49
2022-12-28T09:49:45.086Z,5.52
2022-12-28T09:50:47.503Z,5.38
2022-12-28T09:52:00.425Z,5.27
2022-12-28T09:53:25.101Z,5.19
2022-12-28T09:54:26.756Z,5.10
2022-12-28T09:55:29.529Z,5.09
2022-12-28T09:56:37.457Z,5.08
2022-12-28T09:57:43.070Z,5.04
2022-12-28T09:58:48.117Z,4.97
2022-12-28T09:59:52.339Z,4.98
2022-12-28T10:00:58.958Z,5.00
2022-12-28T10:02:04.131Z,5.07
2022-12-28T10:03:16.031Z,5.17
2022-12-28T10:04:17.620Z,5.22
2022-12-28T10:05:21.295Z,5.26
2022-12-28T10:06:26.666Z,5.28
2022-12-28T10:07:28.409Z,5.33
2022-12-28T10:08:30.438Z,5.39
2022-12-28T10:09:33.990Z,5.45
2022-12-28T10:10:35.509Z,5.49
2022-12-28T10:11:41.495Z,5.46
2022-12-28T10:12:44.194Z,5.48
2022-12-28T10:13:54.729Z,5.51
2022-12-28T10:14:59.355Z,5.55
2022-12-28T10:16:01.248Z,5.61
2022-12-28T10:17:05.419Z,5.64
2022-12-28T10:18:07.116Z,5.63
2022-12-28T10:19:08.678Z,5.64
2022-12-28T10:20:22.745Z,5.57
2022-12-28T10:21:32.888Z,5.55
2022-12-28T10:22:38.857Z,5.57
2022-12-28T10:24:04.651Z,5.55
2022-12-28T10:25:13.768Z,5.42
2022-12-28T10:26:18.435Z,5.30
2022-12-28T10:27:31.269Z,5.19
2022-12-28T10:28:48.744Z,5.20
2022-12-28T10:29:51.993Z,5.25
2022-12-28T10:31:04.846Z,5.34
2022-12-28T10:32:09.516Z,5.40
2022-12-28T10:33:17.168Z,5.42
2022-12-28T10:34:24.491Z,5.39
2022-12-28T10:35:30.494Z,5.38
2022-12-28T10:36:36.013Z,5.39
2022-12-28T10:37:44.528Z,5.33
2022-12-28T10:38:55.997Z,5.30
2022-12-28T10:40:22.447Z,5.21
2022-12-28T10:41:37.149Z,5.12
2022-12-28T10:42:42.578Z,5.12
2022-12-28T10:43:58.550Z,5.15
2022-12-28T10:45:24.029Z,5.22
2022-12-28T10:46:25.712Z,5.32
2022-12-28T10:47:35.957Z,5.45
2022-12-28T10:48:39.733Z,5.58
2022-12-28T10:50:02.810Z,5.68
2022-12-28T10:51:17.586Z,5.74
2022-12-28T10:52:20.819Z,5.64
2022-12-28T10:53:33.200Z,5.57
2022-12-28T10:54:37.090Z,5.61
2022-12-28T10:55:39.856Z,5.67
2022-12-28T10:56:49.144Z,5.76
2022-12-28T10:58:27.399Z,5.85
2022-12-28T10:59:15.131Z,5.96
2022-12-28T11:00:23.517Z,5.99
2022-12-28T11:01:29.053Z,6.09
2022-12-28T11:02:32.874Z,6.18
2022-12-28T11:03:38.102Z,6.22
2022-12-28T11:04:59.537Z,6.29
2022-12-28T11:06:18.962Z,6.39
2022-12-28T11:07:46.246Z,6.40
2022-12-28T11:09:21.789Z,6.39
2022-12-28T11:10:28.893Z,6.48
2022-12-28T11:11:30.822Z,6.51
2022-12-28T11:12:36.847Z,6.56
2022-12-28T11:13:39.993Z,6.62
2022-12-28T11:14:41.719Z,6.69
2022-12-28T11:15:44.245Z,6.74
2022-12-28T11:16:46.102Z,6.79
2022-12-28T11:18:16.191Z,6.87
2022-12-28T11:19:17.763Z,6.93
2022-12-28T11:20:24.756Z,6.94
2022-12-28T11:21:26.288Z,6.88
2022-12-28T11:22:29.979Z,6.84
2022-12-28T11:23:33.211Z,6.81
2022-12-28T11:24:39.312Z,6.82
2022-12-28T11:25:41.265Z,6.82
2022-12-28T11:26:45.968Z,6.84
2022-12-28T11:27:48.454Z,6.89
2022-12-28T11:28:52.812Z,6.92
2022-12-28T11:29:56.162Z,6.92
2022-12-28T11:30:58.017Z,6.91
2022-12-28T11:32:05.294Z,6.95
2022-12-28T11:33:10.033Z,6.99
2022-12-28T11:34:18.144Z,7.06
2022-12-28T11:35:35.195Z,7.09
2022-12-28T11:36:40.634Z,7.03
2022-12-28T11:37:52.920Z,7.00
2022-12-28T11:38:56.455Z,6.98
2022-12-28T11:39:58.965Z,6.98
2022-12-28T11:41:00.608Z,7.01
2022-12-28T11:42:37.314Z,7.06
2022-12-28T11:43:30.497Z,7.06
2022-12-28T11:44:34.792Z,7.08
2022-12-28T11:45:57.574Z,7.09
2022-12-28T11:47:27.947Z,6.96
2022-12-28T11:48:41.930Z,6.96
2022-12-28T11:49:45.823Z,7.00
2022-12-28T11:50:52.140Z,7.05
2022-12-28T11:52:20.741Z,7.16
2022-12-28T11:53:44.399Z,7.22
2022-12-28T11:54:52.797Z,7.31
2022-12-28T11:56:07.439Z,7.37
2022-12-28T11:57:11.111Z,7.43
2022-12-28T11:58:35.803Z,7.54
2022-12-28T11:59:37.355Z,7.58
2022-12-28T12:00:38.821Z,7.63
2022-12-28T12:01:42.544Z,7.64
2022-12-28T12:02:49.264Z,7.72
2022-12-28T12:03:59.644Z,7.79
2022-12-28T12:05:39.280Z,7.84
2022-12-28T12:06:44.051Z,7.90
2022-12-28T12:07:48.182Z,7.89
2022-12-28T12:08:50.670Z,7.87
2022-12-28T12:10:19.849Z,7.88
2022-12-28T12:11:31.934Z,7.95
2022-12-28T12:12:37.078Z,7.99
2022-12-28T12:13:44.419Z,8.00
2022-12-28T12:15:17.707Z,7.98
2022-12-28T12:16:26.884Z,7.98
2022-12-28T12:17:55.210Z,7.99
2022-12-28T12:19:00.015Z,7.92
2022-12-28T12:20:29.895Z,7.98
2022-12-28T12:21:45.813Z,8.00
2022-12-28T12:22:52.838Z,8.03
2022-12-28T12:24:01.092Z,8.06
2022-12-28T12:25:49.379Z,8.09
2022-12-28T12:26:54.371Z,8.10
2022-12-28T12:28:14.596Z,8.07
2022-12-28T12:29:39.806Z,7.62
2022-12-28T12:30:44.107Z,7.39
2022-12-28T12:32:15.865Z,7.23
2022-12-28T12:33:26.401Z,7.17
2022-12-28T12:34:40.069Z,7.13
2022-12-28T12:36:04.244Z,7.10
2022-12-28T12:37:21.130Z,7.16
2022-12-28T12:38:47.463Z,7.15
2022-12-28T12:39:49.037Z,7.15
2022-12-28T12:40:57.356Z,7.14
2022-12-28T12:42:09.100Z,7.08
2022-12-28T12:43:30.892Z,7.09
2022-12-28T12:45:00.848Z,7.09
2022-12-28T12:46:23.734Z,7.00
2022-12-28T12:47:59.164Z,6.96
2022-12-28T12:49:22.339Z,6.97
2022-12-28T12:50:32.963Z,6.98
2022-12-28T12:51:50.693Z,6.96
2022-12-28T12:53:16.887Z,6.92
2022-12-28T12:54:33.659Z,6.88
2022-12-28T12:55:44.099Z,6.85
2022-12-28T12:57:04.066Z,6.80
2022-12-28T12:58:17.597Z,6.76
2022-12-28T12:59:45.476Z,6.73
2022-12-28T13:00:56.914Z,6.73
2022-12-28T13:02:07.743Z,6.73
2022-12-28T13:03:18.784Z,6.77
2022-12-28T13:04:29.538Z,6.88
2022-12-28T13:05:31.980Z,6.93
2022-12-28T13:06:35.887Z,6.94
2022-12-28T13:07:40.061Z,6.92
2022-12-28T13:08:48.620Z,6.92
2022-12-28T13:09:53.565Z,6.95
2022-12-28T13:10:56.018Z,7.02
2022-12-28T13:11:58.944Z,7.11
2022-12-28T13:13:02.488Z,7.20
2022-12-28T13:14:05.109Z,7.31
2022-12-28T13:15:12.407Z,7.39
2022-12-28T13:16:18.279Z,7.48
2022-12-28T13:17:21.633Z,7.56
2022-12-28T13:19:44.983Z,7.70
2022-12-28T13:20:54.711Z,7.74
2022-12-28T13:21:59.064Z,7.80
2022-12-28T13:23:00.721Z,7.88
2022-12-28T13:24:02.241Z,7.93
2022-12-28T13:25:03.952Z,7.99
2022-12-28T13:26:05.949Z,8.03
2022-12-28T13:27:19.035Z,8.07
2022-12-28T13:28:30.144Z,8.12
2022-12-28T13:29:35.946Z,8.17
2022-12-28T13:30:38.403Z,8.19
2022-12-28T13:31:47.874Z,8.22
2022-12-28T13:32:58.260Z,8.26
2022-12-28T13:34:24.641Z,8.31
2022-12-28T13:35:32.367Z,8.37
2022-12-28T13:36:34.026Z,8.39
2022-12-28T13:37:35.573Z,8.39
2022-12-28T13:38:37.148Z,8.40
2022-12-28T13:39:42.017Z,8.36
2022-12-28T13:40:53.686Z,8.36
2022-12-28T13:41:58.532Z,8.31
2022-12-28T13:43:18.790Z,8.22
2022-12-28T13:44:24.607Z,8.10
2022-12-28T13:45:26.522Z,8.13
2022-12-28T13:46:29.324Z,8.19
2022-12-28T13:47:33.692Z,8.23
2022-12-28T13:48:43.228Z,8.28
2022-12-28T13:50:09.806Z,8.32
2022-12-28T13:51:15.927Z,8.35
2022-12-28T13:52:23.889Z,8.32
2022-12-28T13:53:29.515Z,8.32
2022-12-28T13:54:31.816Z,8.33
2022-12-28T13:55:41.034Z,8.35
2022-12-28T13:56:44.921Z,8.29
2022-12-28T13:57:57.354Z,8.16
2022-12-28T13:59:06.610Z,7.90
2022-12-28T14:00:09.524Z,7.64
2022-12-28T14:01:21.482Z,7.42
2022-12-28T14:02:24.735Z,7.28
2022-12-28T14:03:27.304Z,7.27
2022-12-28T14:05:57.021Z,7.22
2022-12-28T14:06:59.470Z,7.24
2022-12-28T14:08:02.613Z,7.31
2022-12-28T14:09:05.941Z,7.31
2022-12-28T14:10:08.633Z,7.28
2022-12-28T14:11:11.024Z,7.28
2022-12-28T14:12:14.697Z,7.35
2022-12-28T14:13:18.215Z,7.39
2022-12-28T14:14:19.939Z,7.36
2022-12-28T14:15:22.305Z,7.27
2022-12-28T14:16:25.858Z,7.24
2022-12-28T14:17:27.737Z,7.18
2022-12-28T14:18:31.413Z,7.14
2022-12-28T14:19:34.403Z,7.11
2022-12-28T14:20:52.865Z,7.11
2022-12-28T14:21:54.516Z,7.09
2022-12-28T14:23:20.272Z,7.12
2022-12-28T14:24:21.848Z,7.18
2022-12-28T14:25:23.894Z,7.22
2022-12-28T14:26:25.633Z,7.19
2022-12-28T14:27:27.487Z,7.14
2022-12-28T14:28:36.962Z,7.09
2022-12-28T14:29:39.476Z,7.11
2022-12-28T14:30:43.031Z,7.17
2022-12-28T14:31:45.162Z,7.22
2022-12-28T14:32:46.948Z,7.29
2022-12-28T14:33:55.041Z,7.30
2022-12-28T14:34:59.181Z,7.30
2022-12-28T14:36:03.507Z,7.29
2022-12-28T14:37:06.876Z,7.28
2022-12-28T14:38:18.135Z,7.29
2022-12-28T14:39:37.957Z,7.32
2022-12-28T14:40:39.865Z,7.31
2022-12-28T14:41:46.362Z,7.31
2022-12-28T14:42:51.973Z,7.26
2022-12-28T14:43:56.898Z,7.22
2022-12-28T14:44:59.095Z,7.20
2022-12-28T14:46:27.090Z,7.20
2022-12-28T14:47:46.237Z,7.27